sensor_id;sensor_type;location;lat;lon;timestamp;temperature;humidity
4820;DHT22;2424;49.696;6.630;2022-09-24T00:01:06;9.90;99.90
4820;DHT22;2424;49.696;6.630;2022-09-24T00:06:33;9.90;99.90
4820;DHT22;2424;49.696;6.630;2022-09-24T00:11:56;9.80;99.90
4820;DHT22;2424;49.696;6.630;2022-09-24T00:17:18;9.70;99.90
4820;DHT22;2424;49.696;6.630;2022-09-24T00:22:42;9.70;99.90
4820;DHT22;2424;49.696;6.630;2022-09-24T00:28:04;9.80;99.90
4820;DHT22;2424;49.696;6.630;2022-09-24T00:33:26;9.80;99.90
4820;DHT22;2424;49.696;6.630;2022-09-24T00:38:51;9.90;99.90
4820;DHT22;2424;49.696;6.630;2022-09-24T00:50:17;9.90;99.90
4820;DHT22;2424;49.696;6.630;2022-09-24T00:55:44;9.80;99.90
4820;DHT22;2424;49.696;6.630;2022-09-24T01:01:07;9.80;99.90
4820;DHT22;2424;49.696;6.630;2022-09-24T01:06:29;9.80;99.90
4820;DHT22;2424;49.696;6.630;2022-09-24T01:12:00;9.80;99.90
4820;DHT22;2424;49.696;6.630;2022-09-24T01:17:28;9.80;99.90
4820;DHT22;2424;49.696;6.630;2022-09-24T01:23:08;9.80;99.90
4820;DHT22;2424;49.696;6.630;2022-09-24T01:28:40;9.80;99.90
4820;DHT22;2424;49.696;6.630;2022-09-24T01:34:09;9.70;99.90
4820;DHT22;2424;49.696;6.630;2022-09-24T01:39:37;9.70;99.90
4820;DHT22;2424;49.696;6.630;2022-09-24T01:45:00;9.70;99.90
4820;DHT22;2424;49.696;6.630;2022-09-24T01:50:26;9.70;99.90
4820;DHT22;2424;49.696;6.630;2022-09-24T01:55:53;9.70;99.90
4820;DHT22;2424;49.696;6.630;2022-09-24T02:01:21;9.70;99.90
4820;DHT22;2424;49.696;6.630;2022-09-24T02:06:49;9.60;99.90
4820;DHT22;2424;49.696;6.630;2022-09-24T02:12:15;9.70;99.90
4820;DHT22;2424;49.696;6.630;2022-09-24T02:17:40;9.70;99.90
4820;DHT22;2424;49.696;6.630;2022-09-24T02:23:07;9.70;99.90
4820;DHT22;2424;49.696;6.630;2022-09-24T02:28:32;9.70;99.90
4820;DHT22;2424;49.696;6.630;2022-09-24T02:33:56;9.70;99.90
4820;DHT22;2424;49.696;6.630;2022-09-24T02:39:38;9.70;99.90
4820;DHT22;2424;49.696;6.630;2022-09-24T02:45:01;9.70;99.90
4820;DHT22;2424;49.696;6.630;2022-09-24T02:50:24;9.60;99.90
4820;DHT22;2424;49.696;6.630;2022-09-24T02:55:47;9.70;99.90
4820;DHT22;2424;49.696;6.630;2022-09-24T03:01:09;9.60;99.90
4820;DHT22;2424;49.696;6.630;2022-09-24T03:06:32;9.50;99.90
4820;DHT22;2424;49.696;6.630;2022-09-24T03:11:55;9.60;99.90
4820;DHT22;2424;49.696;6.630;2022-09-24T03:17:20;9.60;99.90
4820;DHT22;2424;49.696;6.630;2022-09-24T03:22:42;9.60;99.90
4820;DHT22;2424;49.696;6.630;2022-09-24T03:28:06;9.60;99.90
4820;DHT22;2424;49.696;6.630;2022-09-24T03:33:29;9.60;99.90
4820;DHT22;2424;49.696;6.630;2022-09-24T03:38:53;9.60;99.90
4820;DHT22;2424;49.696;6.630;2022-09-24T03:44:17;9.60;99.90
4820;DHT22;2424;49.696;6.630;2022-09-24T03:49:39;9.60;99.90
4820;DHT22;2424;49.696;6.630;2022-09-24T03:55:02;9.60;99.90
4820;DHT22;2424;49.696;6.630;2022-09-24T04:00:25;9.60;99.90
4820;DHT22;2424;49.696;6.630;2022-09-24T04:05:48;9.60;99.90
4820;DHT22;2424;49.696;6.630;2022-09-24T04:11:10;9.60;99.90
4820;DHT22;2424;49.696;6.630;2022-09-24T04:16:34;9.60;99.90
4820;DHT22;2424;49.696;6.630;2022-09-24T04:21:56;9.60;99.90
4820;DHT22;2424;49.696;6.630;2022-09-24T04:27:18;9.60;99.90
4820;DHT22;2424;49.696;6.630;2022-09-24T04:32:42;9.70;99.90
4820;DHT22;2424;49.696;6.630;2022-09-24T04:38:04;9.60;99.90
4820;DHT22;2424;49.696;6.630;2022-09-24T04:43:26;9.60;99.90
4820;DHT22;2424;49.696;6.630;2022-09-24T04:48:50;9.60;99.90
4820;DHT22;2424;49.696;6.630;2022-09-24T04:54:12;9.60;99.90
4820;DHT22;2424;49.696;6.630;2022-09-24T04:59:34;9.60;99.90
4820;DHT22;2424;49.696;6.630;2022-09-24T05:04:58;9.60;99.90
4820;DHT22;2424;49.696;6.630;2022-09-24T05:10:22;9.60;99.90
4820;DHT22;2424;49.696;6.630;2022-09-24T05:15:44;9.60;99.90
4820;DHT22;2424;49.696;6.630;2022-09-24T05:21:07;9.50;99.90
4820;DHT22;2424;49.696;6.630;2022-09-24T05:26:29;9.50;99.90
4820;DHT22;2424;49.696;6.630;2022-09-24T05:32:11;9.50;99.90
4820;DHT22;2424;49.696;6.630;2022-09-24T05:37:35;9.50;99.90
4820;DHT22;2424;49.696;6.630;2022-09-24T05:42:59;9.60;99.90
4820;DHT22;2424;49.696;6.630;2022-09-24T05:48:22;9.60;99.90
4820;DHT22;2424;49.696;6.630;2022-09-24T05:53:45;9.60;99.90
4820;DHT22;2424;49.696;6.630;2022-09-24T05:59:25;9.70;99.90
4820;DHT22;2424;49.696;6.630;2022-09-24T06:04:47;9.70;99.90
4820;DHT22;2424;49.696;6.630;2022-09-24T06:10:10;9.70;99.90
4820;DHT22;2424;49.696;6.630;2022-09-24T06:15:32;9.70;99.90
4820;DHT22;2424;49.696;6.630;2022-09-24T06:21:00;9.70;99.90
4820;DHT22;2424;49.696;6.630;2022-09-24T06:26:24;9.80;99.90
4820;DHT22;2424;49.696;6.630;2022-09-24T06:31:47;9.70;99.90
4820;DHT22;2424;49.696;6.630;2022-09-24T06:37:09;9.80;99.90
4820;DHT22;2424;49.696;6.630;2022-09-24T06:42:33;9.80;99.90
4820;DHT22;2424;49.696;6.630;2022-09-24T06:47:56;9.80;99.90
4820;DHT22;2424;49.696;6.630;2022-09-24T06:53:20;9.90;99.90
4820;DHT22;2424;49.696;6.630;2022-09-24T06:58:43;10.00;99.90
4820;DHT22;2424;49.696;6.630;2022-09-24T07:04:06;10.00;99.90
4820;DHT22;2424;49.696;6.630;2022-09-24T07:09:28;10.00;99.90
4820;DHT22;2424;49.696;6.630;2022-09-24T07:14:52;10.10;99.90
4820;DHT22;2424;49.696;6.630;2022-09-24T07:20:14;10.10;99.90
4820;DHT22;2424;49.696;6.630;2022-09-24T07:25:36;10.10;99.90
4820;DHT22;2424;49.696;6.630;2022-09-24T07:31:00;10.20;99.90
4820;DHT22;2424;49.696;6.630;2022-09-24T07:36:22;10.20;99.90
4820;DHT22;2424;49.696;6.630;2022-09-24T07:41:44;10.20;99.90
4820;DHT22;2424;49.696;6.630;2022-09-24T07:47:08;10.20;99.90
4820;DHT22;2424;49.696;6.630;2022-09-24T07:52:30;10.30;99.90
4820;DHT22;2424;49.696;6.630;2022-09-24T07:57:53;10.30;99.90
4820;DHT22;2424;49.696;6.630;2022-09-24T08:03:17;10.40;99.90
4820;DHT22;2424;49.696;6.630;2022-09-24T08:08:39;10.40;99.90
4820;DHT22;2424;49.696;6.630;2022-09-24T08:14:03;10.50;99.90
4820;DHT22;2424;49.696;6.630;2022-09-24T08:19:26;10.70;99.90
4820;DHT22;2424;49.696;6.630;2022-09-24T08:24:50;10.70;99.90
4820;DHT22;2424;49.696;6.630;2022-09-24T08:30:13;10.90;99.90
4820;DHT22;2424;49.696;6.630;2022-09-24T08:35:37;11.10;99.90
4820;DHT22;2424;49.696;6.630;2022-09-24T08:41:06;11.10;99.90
4820;DHT22;2424;49.696;6.630;2022-09-24T08:46:32;11.20;99.90
4820;DHT22;2424;49.696;6.630;2022-09-24T08:52:25;11.30;99.90
4820;DHT22;2424;49.696;6.630;2022-09-24T08:57:57;11.40;99.90
4820;DHT22;2424;49.696;6.630;2022-09-24T09:03:25;11.50;99.90
4820;DHT22;2424;49.696;6.630;2022-09-24T09:08:57;11.60;99.90
4820;DHT22;2424;49.696;6.630;2022-09-24T09:14:33;11.70;99.90
4820;DHT22;2424;49.696;6.630;2022-09-24T09:20:02;11.90;99.90
4820;DHT22;2424;49.696;6.630;2022-09-24T09:25:31;12.00;99.90
4820;DHT22;2424;49.696;6.630;2022-09-24T09:31:02;12.00;99.90
4820;DHT22;2424;49.696;6.630;2022-09-24T09:36:42;12.10;99.90
4820;DHT22;2424;49.696;6.630;2022-09-24T09:42:22;12.30;99.90
4820;DHT22;2424;49.696;6.630;2022-09-24T09:47:49;12.40;99.90
4820;DHT22;2424;49.696;6.630;2022-09-24T09:53:18;12.50;99.90
4820;DHT22;2424;49.696;6.630;2022-09-24T09:58:44;12.70;99.90
4820;DHT22;2424;49.696;6.630;2022-09-24T10:04:22;12.70;99.90
4820;DHT22;2424;49.696;6.630;2022-09-24T10:15:02;13.00;99.90
4820;DHT22;2424;49.696;6.630;2022-09-24T10:20:25;13.30;99.90
4820;DHT22;2424;49.696;6.630;2022-09-24T10:25:50;13.40;99.90
4820;DHT22;2424;49.696;6.630;2022-09-24T10:31:18;13.50;99.90
4820;DHT22;2424;49.696;6.630;2022-09-24T10:36:49;13.70;99.90
4820;DHT22;2424;49.696;6.630;2022-09-24T10:42:22;13.80;99.90
4820;DHT22;2424;49.696;6.630;2022-09-24T10:47:52;14.00;99.90
4820;DHT22;2424;49.696;6.630;2022-09-24T10:53:23;14.20;99.90
4820;DHT22;2424;49.696;6.630;2022-09-24T10:59:13;14.30;99.90
4820;DHT22;2424;49.696;6.630;2022-09-24T11:04:46;14.60;99.90
4820;DHT22;2424;49.696;6.630;2022-09-24T11:10:21;14.70;99.90
4820;DHT22;2424;49.696;6.630;2022-09-24T11:21:52;15.10;99.90
4820;DHT22;2424;49.696;6.630;2022-09-24T11:27:38;15.20;99.90
4820;DHT22;2424;49.696;6.630;2022-09-24T11:33:23;15.30;99.90
4820;DHT22;2424;49.696;6.630;2022-09-24T11:39:01;15.50;99.90
4820;DHT22;2424;49.696;6.630;2022-09-24T11:44:54;15.50;99.90
4820;DHT22;2424;49.696;6.630;2022-09-24T11:50:29;15.60;99.90
4820;DHT22;2424;49.696;6.630;2022-09-24T11:55:58;15.70;99.90
4820;DHT22;2424;49.696;6.630;2022-09-24T12:01:24;15.70;99.90
4820;DHT22;2424;49.696;6.630;2022-09-24T12:06:53;15.80;99.90
4820;DHT22;2424;49.696;6.630;2022-09-24T12:12:20;15.70;99.90
4820;DHT22;2424;49.696;6.630;2022-09-24T12:17:48;15.70;99.90
4820;DHT22;2424;49.696;6.630;2022-09-24T12:23:14;15.80;99.90
4820;DHT22;2424;49.696;6.630;2022-09-24T12:28:44;15.70;99.90
4820;DHT22;2424;49.696;6.630;2022-09-24T12:34:36;15.80;99.90
4820;DHT22;2424;49.696;6.630;2022-09-24T12:40:13;15.80;99.90
4820;DHT22;2424;49.696;6.630;2022-09-24T12:45:39;15.80;99.90
4820;DHT22;2424;49.696;6.630;2022-09-24T12:51:03;15.80;99.90
4820;DHT22;2424;49.696;6.630;2022-09-24T12:56:29;15.70;99.90
4820;DHT22;2424;49.696;6.630;2022-09-24T13:01:53;15.70;99.90
4820;DHT22;2424;49.696;6.630;2022-09-24T13:07:30;15.60;99.90
4820;DHT22;2424;49.696;6.630;2022-09-24T13:12:52;15.60;99.90
4820;DHT22;2424;49.696;6.630;2022-09-24T13:18:21;15.50;99.90
4820;DHT22;2424;49.696;6.630;2022-09-24T13:23:46;15.40;99.90
4820;DHT22;2424;49.696;6.630;2022-09-24T13:29:22;15.30;99.90
4820;DHT22;2424;49.696;6.630;2022-09-24T13:34:46;15.20;99.90
4820;DHT22;2424;49.696;6.630;2022-09-24T13:40:16;15.20;99.90
4820;DHT22;2424;49.696;6.630;2022-09-24T13:45:41;15.10;99.90
4820;DHT22;2424;49.696;6.630;2022-09-24T13:51:10;15.10;99.90
4820;DHT22;2424;49.696;6.630;2022-09-24T13:56:34;15.00;99.90
4820;DHT22;2424;49.696;6.630;2022-09-24T14:01:56;14.90;99.90
4820;DHT22;2424;49.696;6.630;2022-09-24T14:07:21;14.90;99.90
4820;DHT22;2424;49.696;6.630;2022-09-24T14:12:43;14.90;99.90
4820;DHT22;2424;49.696;6.630;2022-09-24T14:18:13;14.80;99.90
4820;DHT22;2424;49.696;6.630;2022-09-24T14:23:40;14.80;99.90
4820;DHT22;2424;49.696;6.630;2022-09-24T14:29:06;14.80;99.90
4820;DHT22;2424;49.696;6.630;2022-09-24T14:34:34;14.80;99.90
4820;DHT22;2424;49.696;6.630;2022-09-24T14:40:00;14.80;99.90
4820;DHT22;2424;49.696;6.630;2022-09-24T14:45:26;14.80;99.90
4820;DHT22;2424;49.696;6.630;2022-09-24T14:50:49;14.70;99.90
4820;DHT22;2424;49.696;6.630;2022-09-24T14:56:19;14.80;99.90
4820;DHT22;2424;49.696;6.630;2022-09-24T15:07:40;14.80;99.90
4820;DHT22;2424;49.696;6.630;2022-09-24T15:13:13;14.80;99.90
4820;DHT22;2424;49.696;6.630;2022-09-24T15:18:35;14.80;99.90
4820;DHT22;2424;49.696;6.630;2022-09-24T15:23:57;14.80;99.90
4820;DHT22;2424;49.696;6.630;2022-09-24T15:29:21;14.80;99.90
4820;DHT22;2424;49.696;6.630;2022-09-24T15:34:45;14.80;99.90
4820;DHT22;2424;49.696;6.630;2022-09-24T15:40:14;14.80;99.90
4820;DHT22;2424;49.696;6.630;2022-09-24T15:45:38;14.90;99.90
4820;DHT22;2424;49.696;6.630;2022-09-24T15:51:01;14.90;99.90
4820;DHT22;2424;49.696;6.630;2022-09-24T15:56:23;14.90;99.90
4820;DHT22;2424;49.696;6.630;2022-09-24T16:01:47;14.90;99.90
4820;DHT22;2424;49.696;6.630;2022-09-24T16:07:10;14.90;99.90
4820;DHT22;2424;49.696;6.630;2022-09-24T16:12:32;14.90;99.90
4820;DHT22;2424;49.696;6.630;2022-09-24T16:17:55;14.90;99.90
4820;DHT22;2424;49.696;6.630;2022-09-24T16:23:18;14.80;99.90
4820;DHT22;2424;49.696;6.630;2022-09-24T16:28:40;14.80;99.90
4820;DHT22;2424;49.696;6.630;2022-09-24T16:34:03;14.70;99.90
4820;DHT22;2424;49.696;6.630;2022-09-24T16:39:25;14.60;99.90
4820;DHT22;2424;49.696;6.630;2022-09-24T16:44:47;14.60;99.90
4820;DHT22;2424;49.696;6.630;2022-09-24T16:50:11;14.50;99.90
4820;DHT22;2424;49.696;6.630;2022-09-24T16:55:33;14.50;99.90
4820;DHT22;2424;49.696;6.630;2022-09-24T17:00:55;14.40;99.90
4820;DHT22;2424;49.696;6.630;2022-09-24T17:06:20;14.30;99.90
4820;DHT22;2424;49.696;6.630;2022-09-24T17:11:42;14.20;99.90
4820;DHT22;2424;49.696;6.630;2022-09-24T17:17:06;14.20;99.90
4820;DHT22;2424;49.696;6.630;2022-09-24T17:22:30;14.20;99.90
4820;DHT22;2424;49.696;6.630;2022-09-24T17:27:52;14.20;99.90
4820;DHT22;2424;49.696;6.630;2022-09-24T17:33:13;14.10;99.90
4820;DHT22;2424;49.696;6.630;2022-09-24T17:38:37;14.10;99.90
4820;DHT22;2424;49.696;6.630;2022-09-24T17:43:59;14.10;99.90
4820;DHT22;2424;49.696;6.630;2022-09-24T17:49:22;14.10;99.90
4820;DHT22;2424;49.696;6.630;2022-09-24T17:54:45;14.00;99.90
4820;DHT22;2424;49.696;6.630;2022-09-24T18:00:09;14.00;99.90
4820;DHT22;2424;49.696;6.630;2022-09-24T18:05:31;13.90;99.90
4820;DHT22;2424;49.696;6.630;2022-09-24T18:11:00;13.80;99.90
4820;DHT22;2424;49.696;6.630;2022-09-24T18:16:24;13.70;99.90
4820;DHT22;2424;49.696;6.630;2022-09-24T18:21:46;13.60;99.90
4820;DHT22;2424;49.696;6.630;2022-09-24T18:27:10;13.50;99.90
4820;DHT22;2424;49.696;6.630;2022-09-24T18:32:34;13.40;99.90
4820;DHT22;2424;49.696;6.630;2022-09-24T18:37:58;13.40;99.90
4820;DHT22;2424;49.696;6.630;2022-09-24T18:43:22;13.40;99.90
4820;DHT22;2424;49.696;6.630;2022-09-24T18:48:45;13.30;99.90
4820;DHT22;2424;49.696;6.630;2022-09-24T18:54:11;13.20;99.90
4820;DHT22;2424;49.696;6.630;2022-09-24T18:59:34;13.10;99.90
4820;DHT22;2424;49.696;6.630;2022-09-24T19:05:04;13.10;99.90
4820;DHT22;2424;49.696;6.630;2022-09-24T19:10:26;13.10;99.90
4820;DHT22;2424;49.696;6.630;2022-09-24T19:15:50;13.10;99.90
4820;DHT22;2424;49.696;6.630;2022-09-24T19:21:13;13.10;99.90
4820;DHT22;2424;49.696;6.630;2022-09-24T19:26:35;13.10;99.90
4820;DHT22;2424;49.696;6.630;2022-09-24T19:31:59;13.10;99.90
4820;DHT22;2424;49.696;6.630;2022-09-24T19:37:21;13.10;99.90
4820;DHT22;2424;49.696;6.630;2022-09-24T19:42:44;13.00;99.90
4820;DHT22;2424;49.696;6.630;2022-09-24T19:48:08;13.00;99.90
4820;DHT22;2424;49.696;6.630;2022-09-24T19:53:30;13.00;99.90
4820;DHT22;2424;49.696;6.630;2022-09-24T19:58:53;12.90;99.90
4820;DHT22;2424;49.696;6.630;2022-09-24T20:04:17;12.90;99.90
4820;DHT22;2424;49.696;6.630;2022-09-24T20:09:39;12.90;99.90
4820;DHT22;2424;49.696;6.630;2022-09-24T20:15:02;12.90;99.90
4820;DHT22;2424;49.696;6.630;2022-09-24T20:20:25;13.00;99.90
4820;DHT22;2424;49.696;6.630;2022-09-24T20:25:51;12.90;99.90
4820;DHT22;2424;49.696;6.630;2022-09-24T20:31:32;12.90;99.90
4820;DHT22;2424;49.696;6.630;2022-09-24T20:37:00;12.90;99.90
4820;DHT22;2424;49.696;6.630;2022-09-24T20:42:24;12.80;99.90
4820;DHT22;2424;49.696;6.630;2022-09-24T20:47:45;12.80;99.90
4820;DHT22;2424;49.696;6.630;2022-09-24T20:53:11;12.80;99.90
4820;DHT22;2424;49.696;6.630;2022-09-24T20:58:33;12.70;99.90
4820;DHT22;2424;49.696;6.630;2022-09-24T21:03:55;12.70;99.90
4820;DHT22;2424;49.696;6.630;2022-09-24T21:09:19;12.70;99.90
4820;DHT22;2424;49.696;6.630;2022-09-24T21:14:41;12.70;99.90
4820;DHT22;2424;49.696;6.630;2022-09-24T21:20:04;12.70;99.90
4820;DHT22;2424;49.696;6.630;2022-09-24T21:25:28;12.60;99.90
4820;DHT22;2424;49.696;6.630;2022-09-24T21:30:56;12.60;99.90
4820;DHT22;2424;49.696;6.630;2022-09-24T21:36:24;12.50;99.90
4820;DHT22;2424;49.696;6.630;2022-09-24T21:41:50;12.50;99.90
4820;DHT22;2424;49.696;6.630;2022-09-24T21:47:14;12.50;99.90
4820;DHT22;2424;49.696;6.630;2022-09-24T21:52:37;12.50;99.90
4820;DHT22;2424;49.696;6.630;2022-09-24T21:58:00;12.40;99.90
4820;DHT22;2424;49.696;6.630;2022-09-24T22:03:22;12.40;99.90
4820;DHT22;2424;49.696;6.630;2022-09-24T22:08:44;12.40;99.90
4820;DHT22;2424;49.696;6.630;2022-09-24T22:14:08;12.40;99.90
4820;DHT22;2424;49.696;6.630;2022-09-24T22:19:31;12.30;99.90
4820;DHT22;2424;49.696;6.630;2022-09-24T22:24:53;12.30;99.90
4820;DHT22;2424;49.696;6.630;2022-09-24T22:30:17;12.30;99.90
4820;DHT22;2424;49.696;6.630;2022-09-24T22:35:39;12.30;99.90
4820;DHT22;2424;49.696;6.630;2022-09-24T22:41:11;12.20;99.90
4820;DHT22;2424;49.696;6.630;2022-09-24T22:46:34;12.30;99.90
4820;DHT22;2424;49.696;6.630;2022-09-24T22:52:00;12.30;99.90
4820;DHT22;2424;49.696;6.630;2022-09-24T22:57:22;12.30;99.90
4820;DHT22;2424;49.696;6.630;2022-09-24T23:02:46;12.20;99.90
4820;DHT22;2424;49.696;6.630;2022-09-24T23:08:08;12.20;99.90
4820;DHT22;2424;49.696;6.630;2022-09-24T23:13:30;12.30;99.90
4820;DHT22;2424;49.696;6.630;2022-09-24T23:18:55;12.30;99.90
4820;DHT22;2424;49.696;6.630;2022-09-24T23:24:18;12.30;99.90
4820;DHT22;2424;49.696;6.630;2022-09-24T23:29:41;12.30;99.90
4820;DHT22;2424;49.696;6.630;2022-09-24T23:35:05;12.30;99.90
4820;DHT22;2424;49.696;6.630;2022-09-24T23:40:28;12.30;99.90
4820;DHT22;2424;49.696;6.630;2022-09-24T23:45:50;12.30;99.90
4820;DHT22;2424;49.696;6.630;2022-09-24T23:51:13;12.30;99.90
4820;DHT22;2424;49.696;6.630;2022-09-24T23:56:35;12.30;99.90
